Time;durP1;ratioP1;P1;durP2;ratioP2;P2;SDS_P1;SDS_P2;PMS_P1;PMS_P2;Temp;Humidity;BMP_temperature;BMP_pressure;BME280_temperature;BME280_humidity;BME280_pressure;Samples;Min_cycle;Max_cycle;Signal;HPM_P1;HPM_P2
2022/07/03 00:00:46;;;;;;;4.32;2.35;;;22.90;99.90;;;;;;4949097;28;20191;-72
2022/07/03 00:03:12;;;;;;;4.97;2.77;;;22.90;99.90;;;;;;4963219;28;20266;-73
2022/07/03 00:05:39;;;;;;;3.00;2.00;;;22.90;99.90;;;;;;4949187;28;20190;-71
2022/07/03 00:08:05;;;;;;;4.65;2.30;;;22.90;99.90;;;;;;4950798;28;20207;-71
2022/07/03 00:10:31;;;;;;;5.20;2.75;;;22.90;99.90;;;;;;4948608;28;20305;-71
2022/07/03 00:12:58;;;;;;;6.40;2.65;;;22.90;99.90;;;;;;4947928;29;20248;-70
2022/07/03 00:15:24;;;;;;;3.65;2.20;;;22.90;99.90;;;;;;4947761;29;20277;-73
2022/07/03 00:17:50;;;;;;;5.00;2.50;;;22.80;99.90;;;;;;4964637;28;20230;-72
2022/07/03 00:20:17;;;;;;;3.58;2.65;;;22.90;99.90;;;;;;4946812;29;20640;-71
2022/07/03 00:22:45;;;;;;;4.15;2.47;;;22.80;99.90;;;;;;4950490;28;20210;-71
2022/07/03 00:25:13;;;;;;;6.13;2.40;;;22.80;99.90;;;;;;4964126;28;20205;-72
2022/07/03 00:27:43;;;;;;;3.33;2.30;;;22.80;99.90;;;;;;4949462;28;21003;-72
2022/07/03 00:30:10;;;;;;;7.27;2.70;;;22.70;99.90;;;;;;4963198;28;20206;-72
2022/07/03 00:32:41;;;;;;;2.78;2.40;;;22.70;99.90;;;;;;4964744;28;20678;-73
2022/07/03 00:35:09;;;;;;;5.22;2.50;;;22.70;99.90;;;;;;4965085;28;20281;-72
2022/07/03 00:37:35;;;;;;;4.22;2.50;;;22.60;99.90;;;;;;4950756;29;20289;-72
2022/07/03 00:40:02;;;;;;;3.77;2.40;;;22.60;99.90;;;;;;4948426;29;20199;-72
2022/07/03 00:42:28;;;;;;;6.33;2.53;;;22.50;99.90;;;;;;4949444;29;20222;-72
2022/07/03 00:44:57;;;;;;;3.72;2.40;;;22.60;99.90;;;;;;4949681;29;20205;-70
2022/07/03 00:47:26;;;;;;;3.58;2.67;;;22.60;99.90;;;;;;4949339;29;20604;-73
2022/07/03 00:49:57;;;;;;;4.15;2.50;;;22.50;99.90;;;;;;4963969;28;20195;-73
2022/07/03 00:52:24;;;;;;;3.88;2.72;;;22.40;99.90;;;;;;4946747;29;20222;-72
2022/07/03 00:54:56;;;;;;;4.53;2.47;;;22.50;99.90;;;;;;4949376;28;20191;-71
2022/07/03 00:57:25;;;;;;;4.15;2.55;;;22.50;99.90;;;;;;4947454;29;20198;-72
2022/07/03 00:59:55;;;;;;;4.55;2.65;;;22.40;99.90;;;;;;4949986;29;20684;-70
2022/07/03 01:02:53;;;;;;;4.88;2.33;;;22.50;99.90;;;;;;4949669;29;20189;-71
2022/07/03 01:05:56;;;;;;;5.28;2.67;;;22.50;99.90;;;;;;4949513;29;20556;-73
2022/07/03 01:08:59;;;;;;;6.25;2.78;;;22.40;99.90;;;;;;4964171;28;20197;-72
2022/07/03 01:11:46;;;;;;;3.88;2.47;;;22.50;99.90;;;;;;4948689;28;21470;-73
2022/07/03 01:14:23;;;;;;;5.57;2.92;;;22.50;99.90;;;;;;4954894;28;20218;-72
2022/07/03 01:16:58;;;;;;;3.53;2.87;;;22.50;99.90;;;;;;4947547;28;20610;-71
2022/07/03 01:19:50;;;;;;;3.53;2.42;;;22.40;99.90;;;;;;4948789;29;20805;-71
2022/07/03 01:22:42;;;;;;;7.00;2.80;;;22.50;99.90;;;;;;4948489;29;20186;-73
2022/07/03 01:25:44;;;;;;;6.07;2.72;;;22.40;99.90;;;;;;4946829;29;20313;-70
2022/07/03 01:28:23;;;;;;;5.77;2.80;;;22.30;99.90;;;;;;4949018;29;20186;-72
2022/07/03 01:30:56;;;;;;;3.93;2.27;;;22.20;99.90;;;;;;4962476;28;20186;-71
2022/07/03 01:33:25;;;;;;;6.28;2.60;;;22.30;99.90;;;;;;4948691;29;20265;-73
2022/07/03 01:36:01;;;;;;;5.40;2.57;;;22.30;99.90;;;;;;4947545;29;20190;-72
2022/07/03 01:38:42;;;;;;;2.73;2.20;;;22.20;99.90;;;;;;4947496;29;20183;-71
2022/07/03 01:41:11;;;;;;;4.13;2.57;;;22.20;99.90;;;;;;4962673;28;20210;-71
2022/07/03 01:44:02;;;;;;;4.80;2.53;;;22.20;99.90;;;;;;4946492;28;20667;-73
2022/07/03 01:46:32;;;;;;;2.40;2.00;;;22.20;99.90;;;;;;4930518;28;20191;-73
2022/07/03 01:48:59;;;;;;;3.53;2.47;;;22.10;99.90;;;;;;4947546;28;20203;-71
2022/07/03 01:51:27;;;;;;;5.33;2.40;;;22.20;99.90;;;;;;4949446;28;20190;-70
2022/07/03 01:53:54;;;;;;;2.63;2.33;;;22.20;99.90;;;;;;4954388;28;20218;-72
2022/07/03 01:56:23;;;;;;;4.55;2.20;;;22.10;99.90;;;;;;4946776;29;20199;-72
2022/07/03 01:58:49;;;;;;;5.47;2.23;;;22.10;99.90;;;;;;4963573;28;20195;-72
2022/07/03 02:01:29;;;;;;;4.93;2.30;;;22.00;99.90;;;;;;4964173;28;20175;-71
2022/07/03 02:04:20;;;;;;;5.67;2.30;;;22.00;99.90;;;;;;4961072;28;20214;-73
2022/07/03 02:07:36;;;;;;;5.10;2.83;;;21.90;99.90;;;;;;4938409;28;20191;-73
2022/07/03 02:10:08;;;;;;;3.77;2.13;;;22.00;99.90;;;;;;4946657;28;20202;-71
2022/07/03 02:12:51;;;;;;;4.77;1.97;;;21.90;99.90;;;;;;4962558;28;20229;-73
2022/07/03 02:15:31;;;;;;;5.90;2.43;;;21.90;99.90;;;;;;4945527;28;20733;-70
2022/07/03 02:18:05;;;;;;;3.73;2.30;;;21.90;99.90;;;;;;4953018;28;20229;-71
2022/07/03 02:20:39;;;;;;;3.40;2.10;;;21.90;99.90;;;;;;4948017;29;20214;-72
2022/07/03 02:23:08;;;;;;;5.13;2.30;;;21.90;99.90;;;;;;4946326;29;20189;-72
2022/07/03 02:25:43;;;;;;;4.33;2.20;;;21.90;99.90;;;;;;4946658;28;20658;-71
2022/07/03 02:28:55;;;;;;;3.80;2.23;;;21.80;99.90;;;;;;4947706;28;20214;-72
2022/07/03 02:31:27;;;;;;;4.73;2.40;;;21.80;99.90;;;;;;4947880;29;20195;-71
2022/07/03 02:33:59;;;;;;;5.30;1.97;;;21.80;99.90;;;;;;4945912;29;20290;-72
2022/07/03 02:36:29;;;;;;;5.57;2.17;;;21.80;99.90;;;;;;4961616;28;20197;-71
2022/07/03 02:38:58;;;;;;;4.60;2.07;;;21.80;99.90;;;;;;4961956;28;20194;-72
2022/07/03 02:41:52;;;;;;;3.80;2.30;;;21.80;99.90;;;;;;4946354;29;20207;-71
2022/07/03 02:44:34;;;;;;;2.33;2.07;;;21.80;99.90;;;;;;4954603;28;20714;-72
2022/07/03 02:47:12;;;;;;;4.07;1.70;;;21.80;99.90;;;;;;4936856;29;20200;-71
2022/07/03 02:50:08;;;;;;;3.00;2.07;;;21.90;99.90;;;;;;4947421;28;20325;-70
2022/07/03 02:52:41;;;;;;;3.37;2.20;;;22.00;99.90;;;;;;4961541;28;20215;-72
2022/07/03 02:55:46;;;;;;;4.00;2.15;;;22.10;99.90;;;;;;4962245;28;20218;-70
2022/07/03 02:58:32;;;;;;;3.20;2.20;;;22.20;99.90;;;;;;4947189;29;20187;-72
2022/07/03 03:01:30;;;;;;;4.27;2.23;;;22.30;99.90;;;;;;4962512;28;20190;-73
2022/07/03 03:04:27;;;;;;;3.80;2.00;;;22.30;99.90;;;;;;4943790;28;20869;-73
2022/07/03 03:07:08;;;;;;;3.30;2.00;;;22.30;99.90;;;;;;4947081;28;20203;-71
2022/07/03 03:09:47;;;;;;;2.67;2.10;;;22.30;99.90;;;;;;4946244;29;20187;-73
2022/07/03 03:12:21;;;;;;;2.07;1.87;;;22.40;99.90;;;;;;4962211;28;20214;-70
2022/07/03 03:14:59;;;;;;;8.60;2.57;;;22.40;99.90;;;;;;4947266;29;20262;-71
2022/07/03 03:17:35;;;;;;;3.20;2.00;;;22.40;99.90;;;;;;4947823;28;20206;-72
2022/07/03 03:20:03;;;;;;;3.43;2.50;;;22.40;99.90;;;;;;4966128;28;20190;-71
2022/07/03 03:22:58;;;;;;;2.80;2.10;;;22.40;99.90;;;;;;4950231;28;20230;-71
2022/07/03 03:25:25;;;;;;;2.43;2.23;;;22.40;99.90;;;;;;4949605;29;20654;-71
2022/07/03 03:27:52;;;;;;;3.33;2.10;;;22.40;99.90;;;;;;4950093;28;20209;-71
2022/07/03 03:30:19;;;;;;;4.90;2.38;;;22.40;99.90;;;;;;4950328;29;20579;-72
2022/07/03 03:32:45;;;;;;;2.40;2.20;;;22.40;99.90;;;;;;4965789;28;20305;-71
2022/07/03 03:35:12;;;;;;;6.20;2.38;;;22.40;99.90;;;;;;4948720;28;20191;-72
2022/07/03 03:37:38;;;;;;;5.22;2.35;;;22.50;99.90;;;;;;4950502;29;20195;-72
2022/07/03 03:40:06;;;;;;;7.13;2.50;;;22.50;99.90;;;;;;4950976;29;20206;-71
2022/07/03 03:42:32;;;;;;;5.18;2.35;;;22.50;99.90;;;;;;4948595;29;21113;-73
2022/07/03 03:44:59;;;;;;;3.00;2.00;;;22.50;99.90;;;;;;4958553;28;20198;-72
2022/07/03 03:47:25;;;;;;;5.95;2.45;;;22.60;99.90;;;;;;4965633;28;20234;-72
2022/07/03 03:49:52;;;;;;;4.40;2.20;;;22.60;99.90;;;;;;4940118;29;20262;-72
2022/07/03 03:52:18;;;;;;;6.17;2.37;;;22.60;99.90;;;;;;4933239;29;20643;-72
2022/07/03 03:54:45;;;;;;;3.47;2.35;;;22.60;99.90;;;;;;4965211;28;20211;-70
2022/07/03 03:57:24;;;;;;;3.27;2.20;;;22.60;99.90;;;;;;4965068;28;20672;-72
2022/07/03 03:59:51;;;;;;;2.25;2.05;;;22.60;99.90;;;;;;4957801;28;20278;-72
2022/07/03 04:02:19;;;;;;;5.57;2.20;;;22.60;99.90;;;;;;4949762;29;20183;-72
2022/07/03 04:04:45;;;;;;;4.18;2.28;;;22.60;99.90;;;;;;4965218;28;20202;-73
2022/07/03 04:07:12;;;;;;;2.78;2.13;;;22.60;99.90;;;;;;4950276;29;20218;-71
2022/07/03 04:09:38;;;;;;;6.68;2.25;;;22.60;99.90;;;;;;4941112;29;20179;-70
2022/07/03 04:12:05;;;;;;;3.78;2.35;;;22.70;99.90;;;;;;4946407;29;20297;-72
2022/07/03 04:14:31;;;;;;;3.75;2.50;;;22.70;99.90;;;;;;4950241;29;20234;-72
2022/07/03 04:16:58;;;;;;;3.15;2.33;;;22.70;99.90;;;;;;4963376;28;20202;-72
2022/07/03 04:19:25;;;;;;;4.53;2.42;;;22.70;99.90;;;;;;4948005;28;20249;-71
2022/07/03 04:21:51;;;;;;;4.13;2.50;;;22.80;99.90;;;;;;4948453;29;20676;-72
2022/07/03 04:24:18;;;;;;;3.38;2.30;;;22.80;99.90;;;;;;4949813;28;20687;-71
2022/07/03 04:26:44;;;;;;;6.30;2.42;;;22.90;99.90;;;;;;4957074;28;20290;-70
2022/07/03 04:29:11;;;;;;;5.55;2.28;;;23.00;99.90;;;;;;4948187;28;20198;-72
2022/07/03 04:31:37;;;;;;;2.63;2.10;;;23.00;99.90;;;;;;4947899;29;20195;-72
2022/07/03 04:34:03;;;;;;;3.38;2.22;;;23.10;99.90;;;;;;4947236;28;20237;-72
2022/07/03 04:36:30;;;;;;;3.05;2.50;;;23.10;99.90;;;;;;4964861;28;20195;-71
2022/07/03 04:38:56;;;;;;;3.78;2.35;;;23.20;99.90;;;;;;4949975;28;20547;-73
2022/07/03 04:41:22;;;;;;;4.22;2.55;;;23.20;99.90;;;;;;4948092;29;20327;-73
2022/07/03 04:43:48;;;;;;;3.75;2.65;;;23.30;99.90;;;;;;4949929;29;20291;-72
2022/07/03 04:46:15;;;;;;;7.82;2.33;;;23.40;99.90;;;;;;4957181;28;20257;-71
2022/07/03 04:48:42;;;;;;;3.85;2.28;;;23.40;99.90;;;;;;4964835;28;20278;-72
2022/07/03 04:51:08;;;;;;;7.75;2.30;;;23.40;99.90;;;;;;4947245;29;20206;-72
2022/07/03 04:53:34;;;;;;;3.83;2.53;;;23.40;99.90;;;;;;4955980;28;20677;-71
2022/07/03 04:56:01;;;;;;;3.38;2.45;;;23.50;99.90;;;;;;4949321;28;20194;-71
2022/07/03 04:58:27;;;;;;;6.40;2.97;;;23.50;99.90;;;;;;4949011;29;20170;-71
2022/07/03 05:00:53;;;;;;;5.20;2.78;;;23.60;99.90;;;;;;4948666;29;20215;-72
2022/07/03 05:03:19;;;;;;;4.00;2.65;;;23.60;99.90;;;;;;4949301;28;20194;-72
2022/07/03 05:05:49;;;;;;;3.90;2.60;;;23.70;99.90;;;;;;4956234;28;20264;-71
2022/07/03 05:08:15;;;;;;;4.47;2.65;;;23.70;99.90;;;;;;4956685;28;20183;-73
2022/07/03 05:10:41;;;;;;;6.05;2.40;;;23.80;99.90;;;;;;4947280;28;20552;-70
2022/07/03 05:13:08;;;;;;;5.32;2.55;;;23.90;99.90;;;;;;4949213;29;20715;-72
2022/07/03 05:15:34;;;;;;;4.28;2.42;;;23.90;99.90;;;;;;4948541;29;20238;-73
2022/07/03 05:18:00;;;;;;;6.07;2.38;;;24.00;99.90;;;;;;4948891;28;20195;-72
2022/07/03 05:20:29;;;;;;;4.65;2.63;;;24.00;99.90;;;;;;4930270;29;20282;-72
2022/07/03 05:23:01;;;;;;;4.32;2.50;;;24.10;99.90;;;;;;4946393;28;20279;-72
2022/07/03 05:25:31;;;;;;;8.65;2.58;;;24.10;99.90;;;;;;4947758;29;20186;-72
2022/07/03 05:28:00;;;;;;;3.42;2.70;;;24.20;99.90;;;;;;4948623;29;20285;-71
2022/07/03 05:30:27;;;;;;;6.32;2.70;;;24.30;99.90;;;;;;4963024;28;20191;-71
2022/07/03 05:32:54;;;;;;;4.07;2.40;;;24.40;99.90;;;;;;4962145;28;20917;-72
2022/07/03 05:35:21;;;;;;;4.13;2.70;;;24.50;99.90;;;;;;4955015;28;20254;-71
2022/07/03 05:37:47;;;;;;;6.18;2.88;;;24.50;99.90;;;;;;4964054;28;20191;-72
2022/07/03 05:40:14;;;;;;;7.53;2.80;;;24.60;99.90;;;;;;4961309;28;20792;-71
2022/07/03 05:42:41;;;;;;;7.32;3.00;;;24.60;99.90;;;;;;4948880;28;20695;-71
2022/07/03 05:45:08;;;;;;;9.18;3.10;;;24.60;99.90;;;;;;4963585;28;20277;-72
2022/07/03 05:47:35;;;;;;;4.90;2.83;;;24.70;99.90;;;;;;4949366;28;20225;-72
2022/07/03 05:50:01;;;;;;;5.70;2.97;;;24.90;99.90;;;;;;4946268;29;20217;-72
2022/07/03 05:52:27;;;;;;;5.80;3.10;;;24.90;99.90;;;;;;4947003;29;20194;-71
2022/07/03 05:54:54;;;;;;;6.40;3.55;;;25.00;99.90;;;;;;4948410;29;20195;-71
2022/07/03 05:57:21;;;;;;;5.47;2.92;;;25.10;99.90;;;;;;4954666;28;20187;-72
2022/07/03 05:59:47;;;;;;;8.95;2.97;;;25.10;99.90;;;;;;4947903;28;20183;-71
2022/07/03 06:02:14;;;;;;;6.28;3.00;;;25.20;99.90;;;;;;4946860;29;20187;-71
2022/07/03 06:04:40;;;;;;;10.48;3.20;;;25.30;99.90;;;;;;4963184;28;20182;-71
2022/07/03 06:07:06;;;;;;;10.23;3.17;;;25.30;99.90;;;;;;4945463;29;20347;-73
2022/07/03 06:09:33;;;;;;;7.50;3.00;;;25.40;99.90;;;;;;4947368;28;20277;-71
2022/07/03 06:12:02;;;;;;;9.50;2.90;;;25.40;99.90;;;;;;4963315;28;20207;-71
2022/07/03 06:14:29;;;;;;;4.22;2.67;;;25.50;99.90;;;;;;4948206;29;20214;-72
2022/07/03 06:16:55;;;;;;;5.85;3.10;;;25.60;99.90;;;;;;4945126;29;20199;-72
2022/07/03 06:19:21;;;;;;;7.20;2.95;;;25.70;99.90;;;;;;4962204;28;20321;-70
2022/07/03 06:21:47;;;;;;;5.63;3.20;;;25.70;99.90;;;;;;4955571;28;20186;-70
2022/07/03 06:24:14;;;;;;;6.95;3.00;;;25.80;99.90;;;;;;4938340;29;20198;-72
2022/07/03 06:26:40;;;;;;;6.93;3.30;;;25.90;99.90;;;;;;4947481;28;20195;-72
2022/07/03 06:29:06;;;;;;;4.03;2.67;;;26.00;99.90;;;;;;4948567;28;20187;-73
2022/07/03 06:31:33;;;;;;;5.70;3.08;;;26.00;99.90;;;;;;4948178;28;20210;-73
2022/07/03 06:33:59;;;;;;;8.45;2.90;;;26.10;99.90;;;;;;4962497;28;20703;-71
2022/07/03 06:36:26;;;;;;;6.35;3.13;;;26.20;99.90;;;;;;4947959;28;20195;-71
2022/07/03 06:38:52;;;;;;;8.25;2.92;;;26.30;99.90;;;;;;4936517;29;20197;-73
2022/07/03 06:41:18;;;;;;;5.63;2.90;;;26.30;99.90;;;;;;4947752;28;20265;-72
2022/07/03 06:43:45;;;;;;;5.32;2.90;;;26.50;99.90;;;;;;4947041;29;20253;-70
2022/07/03 06:46:11;;;;;;;5.88;3.05;;;26.50;99.90;;;;;;4961829;28;20204;-70
2022/07/03 06:48:37;;;;;;;4.85;2.80;;;26.60;99.90;;;;;;4947956;29;20191;-72
2022/07/03 06:51:04;;;;;;;4.93;2.90;;;26.70;99.90;;;;;;4945867;28;20217;-72
2022/07/03 06:53:30;;;;;;;6.70;2.95;;;26.70;99.90;;;;;;4948016;29;20206;-72
2022/07/03 06:55:56;;;;;;;3.85;2.85;;;26.80;99.90;;;;;;4966079;28;20213;-73
2022/07/03 06:58:22;;;;;;;6.30;2.70;;;26.90;99.90;;;;;;4952200;28;20175;-73
2022/07/03 07:00:49;;;;;;;8.13;3.60;;;27.00;99.90;;;;;;4950813;28;20209;-71
2022/07/03 07:03:15;;;;;;;6.78;3.13;;;27.10;99.90;;;;;;4951309;28;20778;-73
2022/07/03 07:05:41;;;;;;;5.65;2.83;;;27.20;99.90;;;;;;4965871;28;20190;-72
2022/07/03 07:08:07;;;;;;;7.95;3.17;;;27.30;99.90;;;;;;4951562;28;21025;-72
2022/07/03 07:10:34;;;;;;;6.50;2.88;;;27.40;99.90;;;;;;4940913;29;20278;-73
2022/07/03 07:13:00;;;;;;;6.15;3.05;;;27.50;99.90;;;;;;4937662;29;20218;-72
2022/07/03 07:15:26;;;;;;;8.43;2.58;;;27.50;99.90;;;;;;4951465;28;20229;-73
2022/07/03 07:17:52;;;;;;;8.10;2.95;;;27.60;99.90;;;;;;4951518;28;20629;-73
2022/07/03 07:20:19;;;;;;;5.65;3.10;;;27.70;99.90;;;;;;4949489;29;20471;-72
2022/07/03 07:22:45;;;;;;;7.45;3.05;;;27.80;99.90;;;;;;4948751;29;20214;-71
2022/07/03 07:25:11;;;;;;;4.82;2.85;;;27.90;99.90;;;;;;4966205;28;20191;-72
2022/07/03 07:27:38;;;;;;;7.80;2.67;;;28.00;99.90;;;;;;4950703;28;20187;-71
2022/07/03 07:30:05;;;;;;;7.43;2.95;;;28.10;99.90;;;;;;4950712;28;20218;-73
2022/07/03 07:32:31;;;;;;;10.00;3.00;;;28.20;99.90;;;;;;4948546;29;20529;-72
2022/07/03 07:34:57;;;;;;;4.28;2.80;;;28.30;99.90;;;;;;4966217;28;20171;-71
2022/07/03 07:37:24;;;;;;;7.05;2.45;;;28.50;99.90;;;;;;4951733;28;20183;-71
2022/07/03 07:39:50;;;;;;;5.05;2.60;;;28.60;99.90;;;;;;4948216;29;20244;-71
2022/07/03 07:42:16;;;;;;;2.78;2.47;;;28.70;99.90;;;;;;4948644;29;20580;-72
2022/07/03 07:44:43;;;;;;;9.70;2.60;;;28.90;99.90;;;;;;4940461;29;20293;-72
2022/07/03 07:47:09;;;;;;;9.05;2.80;;;29.00;99.90;;;;;;4940006;29;20217;-72
2022/07/03 07:49:36;;;;;;;7.18;2.80;;;29.00;99.90;;;;;;4964749;28;20339;-71
2022/07/03 07:52:03;;;;;;;7.20;2.88;;;29.10;99.90;;;;;;4956213;28;20680;-70
2022/07/03 07:54:30;;;;;;;8.30;2.50;;;29.30;99.90;;;;;;4965208;28;20673;-72
2022/07/03 07:56:56;;;;;;;6.13;2.80;;;29.40;99.90;;;;;;4934393;29;20194;-72
2022/07/03 07:59:23;;;;;;;4.40;2.75;;;29.50;99.90;;;;;;4951708;28;20183;-72
2022/07/03 08:07:23;;;;;;;9.05;2.90;;;29.80;99.90;;;;;;4965808;28;20197;-72
2022/07/03 08:09:52;;;;;;;4.68;2.58;;;29.90;99.90;;;;;;4956609;28;21001;-72
2022/07/03 08:12:19;;;;;;;10.88;2.80;;;30.10;99.90;;;;;;4964120;28;20297;-72
2022/07/03 08:14:46;;;;;;;6.30;2.58;;;30.20;99.90;;;;;;4955411;28;20194;-71
2022/07/03 08:17:12;;;;;;;11.45;2.70;;;30.30;99.90;;;;;;4949720;28;20209;-73
2022/07/03 08:19:39;;;;;;;6.75;2.65;;;30.30;99.90;;;;;;4965351;28;20206;-72
2022/07/03 08:22:05;;;;;;;8.10;2.90;;;30.40;99.90;;;;;;4950274;28;20274;-72
2022/07/03 08:24:31;;;;;;;6.13;2.63;;;30.50;99.90;;;;;;4961096;28;20202;-70
2022/07/03 08:26:58;;;;;;;8.10;3.13;;;30.60;99.90;;;;;;4957702;28;20199;-72
2022/07/03 08:29:27;;;;;;;6.43;2.50;;;30.70;99.90;;;;;;4949653;29;20201;-72
2022/07/03 08:31:54;;;;;;;8.38;2.50;;;30.90;99.90;;;;;;4950282;28;20191;-72
2022/07/03 08:34:20;;;;;;;10.02;3.08;;;30.90;99.90;;;;;;4962903;28;20219;-72
2022/07/03 08:36:47;;;;;;;6.82;2.83;;;31.10;99.90;;;;;;4946622;29;20191;-72
2022/07/03 08:39:13;;;;;;;6.72;3.08;;;31.20;99.90;;;;;;4948497;28;20869;-72
2022/07/03 08:41:44;;;;;;;7.65;2.65;;;31.20;99.90;;;;;;4953719;28;20191;-72
2022/07/03 08:44:13;;;;;;;8.23;2.78;;;31.30;99.90;;;;;;4945654;28;20187;-73
2022/07/03 08:46:40;;;;;;;7.53;2.72;;;31.40;99.90;;;;;;4934886;29;21529;-72
2022/07/03 08:49:09;;;;;;;11.90;3.22;;;31.50;99.90;;;;;;4962658;28;20209;-74
2022/07/03 08:51:36;;;;;;;6.93;2.72;;;31.50;99.90;;;;;;4947687;28;20277;-73
2022/07/03 08:54:04;;;;;;;8.88;2.55;;;31.50;99.90;;;;;;4947091;29;20678;-70
2022/07/03 08:56:31;;;;;;;7.57;2.28;;;31.50;99.90;;;;;;4945904;29;20210;-73
2022/07/03 08:59:01;;;;;;;10.30;3.25;;;31.50;99.90;;;;;;4948090;28;20277;-72
2022/07/03 09:01:28;;;;;;;8.13;2.97;;;31.50;99.90;;;;;;4959869;28;20190;-72
2022/07/03 09:03:58;;;;;;;6.38;2.65;;;31.50;99.90;;;;;;4947717;29;20949;-73
2022/07/03 09:06:24;;;;;;;9.43;3.03;;;31.60;99.20;;;;;;4948887;29;20209;-73
2022/07/03 09:08:55;;;;;;;11.75;2.90;;;31.80;99.90;;;;;;4946687;29;20245;-72
2022/07/03 09:11:23;;;;;;;11.65;2.75;;;31.90;99.90;;;;;;4962010;28;20262;-73
2022/07/03 09:13:49;;;;;;;7.70;2.90;;;32.00;99.60;;;;;;4931095;29;20218;-71
2022/07/03 09:16:17;;;;;;;5.82;2.70;;;32.10;99.90;;;;;;4961096;28;20654;-72
2022/07/03 09:18:45;;;;;;;5.68;3.00;;;32.20;99.90;;;;;;4947324;28;20214;-71
2022/07/03 09:21:12;;;;;;;6.43;3.15;;;32.00;99.90;;;;;;4946910;29;20254;-73
2022/07/03 09:23:44;;;;;;;5.18;3.10;;;32.00;99.90;;;;;;4954016;28;20552;-73
2022/07/03 09:26:25;;;;;;;11.40;2.90;;;32.00;99.90;;;;;;4961043;28;20190;-73
2022/07/03 09:28:55;;;;;;;9.77;2.72;;;32.10;99.90;;;;;;4946078;29;20198;-72
2022/07/03 09:31:28;;;;;;;12.30;2.58;;;32.30;99.60;;;;;;4953575;28;20277;-72
2022/07/03 09:34:03;;;;;;;11.40;3.53;;;32.20;99.30;;;;;;4947016;28;20210;-71
2022/07/03 09:36:45;;;;;;;6.22;2.70;;;32.20;99.40;;;;;;4937234;29;20741;-71
2022/07/03 09:39:16;;;;;;;4.88;2.83;;;32.40;99.60;;;;;;4945448;28;20222;-72
2022/07/03 09:42:19;;;;;;;6.75;2.60;;;32.50;99.50;;;;;;4940573;28;20195;-72
2022/07/03 09:44:47;;;;;;;7.45;2.40;;;32.70;99.00;;;;;;4946984;28;20745;-72
2022/07/03 09:47:22;;;;;;;5.03;2.83;;;32.60;99.10;;;;;;4952899;28;20274;-73
2022/07/03 09:49:59;;;;;;;7.28;2.83;;;32.60;98.60;;;;;;4929043;29;20187;-72
2022/07/03 09:52:39;;;;;;;5.82;2.70;;;32.60;98.60;;;;;;4941999;28;20190;-73
2022/07/03 09:55:09;;;;;;;4.57;2.42;;;32.70;98.70;;;;;;4945756;29;20239;-71
2022/07/03 09:57:52;;;;;;;10.38;2.95;;;32.80;98.40;;;;;;4948144;29;20218;-72
2022/07/03 10:00:34;;;;;;;9.00;2.95;;;32.80;98.50;;;;;;4961356;28;20265;-72
2022/07/03 10:03:09;;;;;;;10.18;3.25;;;32.90;98.60;;;;;;4946930;29;20274;-71
2022/07/03 10:05:39;;;;;;;8.00;2.72;;;32.90;97.90;;;;;;4945940;29;20282;-72
2022/07/03 10:08:07;;;;;;;7.15;2.40;;;33.00;99.10;;;;;;4945177;29;20225;-73
2022/07/03 10:10:41;;;;;;;8.40;2.83;;;33.00;98.60;;;;;;4946830;29;20179;-72
2022/07/03 10:13:08;;;;;;;10.80;3.10;;;33.20;98.60;;;;;;4946006;29;20203;-74
2022/07/03 10:15:37;;;;;;;11.45;3.40;;;33.20;98.40;;;;;;4961833;28;20592;-71
2022/07/03 10:18:11;;;;;;;7.88;3.15;;;33.20;98.60;;;;;;4954146;28;20281;-74
2022/07/03 10:20:47;;;;;;;9.93;2.90;;;33.30;98.50;;;;;;4955601;28;20194;-71
2022/07/03 10:23:16;;;;;;;10.60;3.00;;;33.20;98.30;;;;;;4962620;28;20560;-72
2022/07/03 10:25:44;;;;;;;4.60;2.63;;;33.30;98.70;;;;;;4962608;28;20182;-71
2022/07/03 10:28:13;;;;;;;6.60;2.83;;;33.30;98.30;;;;;;4949097;28;20183;-73
2022/07/03 10:30:43;;;;;;;6.60;2.50;;;33.30;98.50;;;;;;4947737;29;20327;-72
2022/07/03 10:33:10;;;;;;;11.70;3.38;;;33.30;98.30;;;;;;4945799;29;20214;-71
2022/07/03 10:35:44;;;;;;;6.95;2.92;;;33.40;97.90;;;;;;4930724;29;20955;-73
2022/07/03 10:38:41;;;;;;;7.95;3.35;;;33.40;97.70;;;;;;4963696;28;20178;-73
2022/07/03 10:46:48;;;;;;;9.52;2.70;;;33.10;97.70;;;;;;4948017;29;20194;-70
2022/07/03 10:49:15;;;;;;;4.32;2.53;;;33.10;97.60;;;;;;4947332;29;20633;-73
2022/07/03 10:52:03;;;;;;;8.88;2.60;;;33.20;97.20;;;;;;4947115;29;20302;-72
2022/07/03 10:54:38;;;;;;;11.00;2.78;;;33.10;97.70;;;;;;4945859;28;20215;-70
2022/07/03 10:57:13;;;;;;;13.55;2.90;;;33.10;97.80;;;;;;4962750;28;20185;-73
2022/07/03 10:59:43;;;;;;;8.07;2.72;;;33.00;97.20;;;;;;4953765;28;20214;-71
2022/07/03 11:02:31;;;;;;;7.45;2.40;;;32.90;97.50;;;;;;4961612;28;20183;-71
2022/07/03 11:05:01;;;;;;;7.22;2.28;;;32.90;97.10;;;;;;4962774;28;20265;-72
2022/07/03 11:07:50;;;;;;;5.47;2.70;;;33.00;97.10;;;;;;4954871;28;20187;-71
2022/07/03 11:10:17;;;;;;;7.32;2.50;;;33.00;96.50;;;;;;4962398;28;20648;-72
2022/07/03 11:13:05;;;;;;;5.50;2.60;;;32.80;97.10;;;;;;4947935;28;20233;-72
2022/07/03 11:15:41;;;;;;;9.85;2.40;;;32.90;97.30;;;;;;4946180;29;20537;-72
2022/07/03 11:18:25;;;;;;;4.10;2.35;;;32.80;97.30;;;;;;4952585;28;20194;-70
2022/07/03 11:20:52;;;;;;;6.72;2.60;;;32.80;97.30;;;;;;4962739;28;20194;-72
2022/07/03 11:23:28;;;;;;;13.20;2.55;;;32.80;96.30;;;;;;4962429;28;20195;-72
2022/07/03 11:25:57;;;;;;;4.60;2.50;;;32.80;96.80;;;;;;4962768;28;20218;-69
2022/07/03 11:28:33;;;;;;;6.03;2.33;;;32.70;96.90;;;;;;4947985;29;20187;-70
2022/07/03 11:31:13;;;;;;;8.60;2.70;;;32.70;96.50;;;;;;4962538;28;20203;-72
2022/07/03 11:33:51;;;;;;;6.35;2.70;;;32.70;96.10;;;;;;4962947;28;20222;-72
2022/07/03 11:36:19;;;;;;;8.30;2.70;;;32.70;96.50;;;;;;4939155;28;20265;-71
2022/07/03 11:39:06;;;;;;;8.63;2.92;;;32.60;97.20;;;;;;4964889;28;20266;-73
2022/07/03 11:41:35;;;;;;;9.38;3.22;;;32.60;97.10;;;;;;4949829;29;20219;-73
2022/07/03 11:44:08;;;;;;;11.80;2.75;;;32.60;97.20;;;;;;4950515;29;20249;-72
2022/07/03 11:46:38;;;;;;;10.63;2.70;;;32.60;96.80;;;;;;4966305;28;20324;-72
2022/07/03 11:49:26;;;;;;;22.38;2.90;;;32.70;95.80;;;;;;4950455;29;20187;-71
2022/07/03 11:52:04;;;;;;;4.53;2.83;;;32.70;96.40;;;;;;4952136;28;20257;-72
2022/07/03 11:54:50;;;;;;;7.15;2.63;;;32.60;97.40;;;;;;4949813;29;20219;-72
2022/07/03 11:57:17;;;;;;;11.55;2.72;;;32.50;96.70;;;;;;4948133;28;20194;-73
2022/07/03 11:59:43;;;;;;;9.90;2.45;;;32.60;97.30;;;;;;4964447;28;20199;-71
2022/07/03 12:02:09;;;;;;;12.05;3.05;;;32.50;97.20;;;;;;4949144;29;20249;-72
2022/07/03 12:04:38;;;;;;;8.35;2.70;;;32.50;96.80;;;;;;4949087;29;20327;-71
2022/07/03 12:07:04;;;;;;;9.80;2.58;;;32.40;96.30;;;;;;4951718;28;20866;-70
2022/07/03 12:09:36;;;;;;;5.78;2.38;;;32.40;95.90;;;;;;4949792;29;20205;-71
2022/07/03 12:12:10;;;;;;;8.50;2.50;;;32.40;95.70;;;;;;4942602;29;20253;-72
2022/07/03 12:14:48;;;;;;;8.70;2.22;;;32.50;95.20;;;;;;4956341;28;20238;-72
2022/07/03 12:17:22;;;;;;;9.55;2.50;;;32.40;95.20;;;;;;4948809;29;20293;-71
2022/07/03 12:20:00;;;;;;;7.30;2.20;;;32.50;95.00;;;;;;4949883;29;20178;-70
2022/07/03 12:22:33;;;;;;;11.00;3.13;;;32.50;95.40;;;;;;4950256;28;20175;-74
2022/07/03 12:25:01;;;;;;;8.45;2.78;;;32.60;97.00;;;;;;4950160;29;20243;-72
2022/07/03 12:27:33;;;;;;;6.70;2.75;;;32.60;96.70;;;;;;4965604;28;20179;-72
2022/07/03 12:30:01;;;;;;;5.85;2.90;;;32.50;96.50;;;;;;4949756;28;20186;-71
2022/07/03 12:32:29;;;;;;;8.80;2.70;;;32.60;97.30;;;;;;4950524;29;20545;-72
2022/07/03 12:34:55;;;;;;;7.50;2.28;;;32.40;96.70;;;;;;4951143;28;20229;-70
2022/07/03 12:37:37;;;;;;;9.60;2.80;;;32.30;96.50;;;;;;4951230;29;20270;-71
2022/07/03 12:40:08;;;;;;;6.22;2.90;;;32.30;96.60;;;;;;4964711;28;20206;-72
2022/07/03 12:42:49;;;;;;;5.68;2.40;;;32.50;96.30;;;;;;4963155;28;20738;-71
2022/07/03 12:45:26;;;;;;;11.27;2.80;;;32.50;95.80;;;;;;4950093;28;20195;-71
2022/07/03 12:48:06;;;;;;;6.00;2.45;;;32.50;96.00;;;;;;4950301;29;20221;-72
2022/07/03 12:50:59;;;;;;;8.75;2.60;;;32.40;96.50;;;;;;4963708;28;20194;-70
2022/07/03 12:53:33;;;;;;;11.65;2.58;;;32.40;96.20;;;;;;4956031;28;20211;-72
2022/07/03 12:56:11;;;;;;;6.22;2.30;;;32.40;95.60;;;;;;4964229;28;20195;-72
2022/07/03 13:01:36;;;;;;;6.50;2.72;;;32.40;96.20;;;;;;4964186;28;20297;-73
2022/07/03 13:04:08;;;;;;;8.40;3.03;;;32.40;96.20;;;;;;4950088;29;20215;-72
2022/07/03 13:06:35;;;;;;;8.95;2.75;;;32.40;96.30;;;;;;4964500;28;20186;-72
2022/07/03 13:09:06;;;;;;;7.57;2.70;;;32.40;97.10;;;;;;4965158;28;20274;-71
2022/07/03 13:11:35;;;;;;;9.05;2.95;;;32.40;97.20;;;;;;4947154;29;20211;-72
2022/07/03 13:14:22;;;;;;;9.82;2.80;;;32.40;97.30;;;;;;4947378;29;20253;-72
2022/07/03 13:16:52;;;;;;;7.88;2.70;;;32.40;97.70;;;;;;4948348;29;20294;-71
2022/07/03 13:19:21;;;;;;;11.23;2.97;;;32.20;97.60;;;;;;4950114;28;20193;-73
2022/07/03 13:21:49;;;;;;;8.13;2.63;;;32.20;97.30;;;;;;4950057;29;20178;-71